sensor_id;sensor_type;location;lat;lon;timestamp;pressure;altitude;pressure_sealevel;temperature;humidity
27864;BME280;15980;51.092;13.916;2023-03-26T00:02:27;97595.66;;;8.15;83.68
27864;BME280;15980;51.092;13.916;2023-03-26T00:12:27;97598.56;;;8.07;84.34
27864;BME280;15980;51.092;13.916;2023-03-26T00:22:28;97612.56;;;8.05;82.56
27864;BME280;15980;51.092;13.916;2023-03-26T00:32:28;97614.94;;;8.07;81.13
27864;BME280;15980;51.092;13.916;2023-03-26T00:42:29;97618.75;;;8.18;79.95
27864;BME280;15980;51.092;13.916;2023-03-26T00:52:29;97618.03;;;8.05;79.41
27864;BME280;15980;51.092;13.916;2023-03-26T01:02:29;97603.31;;;8.10;77.66
27864;BME280;15980;51.092;13.916;2023-03-26T01:12:30;97607.69;;;8.27;76.88
27864;BME280;15980;51.092;13.916;2023-03-26T01:22:33;97601.50;;;8.30;76.48
27864;BME280;15980;51.092;13.916;2023-03-26T01:53:26;97605.88;;;7.47;89.05
27864;BME280;15980;51.092;13.916;2023-03-26T02:03:29;97591.13;;;7.36;88.47
27864;BME280;15980;51.092;13.916;2023-03-26T02:13:31;97587.22;;;7.09;88.74
27864;BME280;15980;51.092;13.916;2023-03-26T02:23:32;97596.44;;;7.04;87.97
27864;BME280;15980;51.092;13.916;2023-03-26T02:33:32;97600.75;;;6.93;86.92
27864;BME280;15980;51.092;13.916;2023-03-26T02:43:32;97599.38;;;7.11;85.14
27864;BME280;15980;51.092;13.916;2023-03-26T02:53:32;97608.34;;;7.12;84.60
27864;BME280;15980;51.092;13.916;2023-03-26T03:03:33;97613.78;;;7.24;84.17
27864;BME280;15980;51.092;13.916;2023-03-26T03:13:33;97604.44;;;7.37;84.50
27864;BME280;15980;51.092;13.916;2023-03-26T03:23:35;97587.84;;;7.30;87.44
27864;BME280;15980;51.092;13.916;2023-03-26T03:33:35;97599.00;;;7.25;88.06
27864;BME280;15980;51.092;13.916;2023-03-26T03:43:35;97596.97;;;7.22;88.08
27864;BME280;15980;51.092;13.916;2023-03-26T03:53:36;97598.13;;;7.09;87.28
27864;BME280;15980;51.092;13.916;2023-03-26T04:03:36;97594.75;;;7.00;87.63
27864;BME280;15980;51.092;13.916;2023-03-26T04:13:36;97587.47;;;6.91;87.56
27864;BME280;15980;51.092;13.916;2023-03-26T04:23:37;97598.50;;;6.83;88.10
27864;BME280;15980;51.092;13.916;2023-03-26T04:33:38;97581.47;;;6.98;87.63
27864;BME280;15980;51.092;13.916;2023-03-26T04:43:38;97564.03;;;7.15;86.92
27864;BME280;15980;51.092;13.916;2023-03-26T04:53:39;97569.88;;;7.29;85.46
27864;BME280;15980;51.092;13.916;2023-03-26T05:03:39;97569.72;;;7.50;84.87
27864;BME280;15980;51.092;13.916;2023-03-26T05:13:39;97575.16;;;7.50;83.80
27864;BME280;15980;51.092;13.916;2023-03-26T05:23:40;97574.06;;;7.67;83.33
27864;BME280;15980;51.092;13.916;2023-03-26T05:33:40;97574.69;;;7.76;81.99
27864;BME280;15980;51.092;13.916;2023-03-26T05:43:41;97581.75;;;7.77;81.86
27864;BME280;15980;51.092;13.916;2023-03-26T05:53:42;97587.34;;;7.96;81.16
27864;BME280;15980;51.092;13.916;2023-03-26T06:03:43;97589.56;;;8.22;80.20
27864;BME280;15980;51.092;13.916;2023-03-26T06:13:44;97595.44;;;8.36;78.46
27864;BME280;15980;51.092;13.916;2023-03-26T06:23:45;97599.25;;;8.47;78.77
27864;BME280;15980;51.092;13.916;2023-03-26T06:33:45;97595.63;;;8.75;76.74
27864;BME280;15980;51.092;13.916;2023-03-26T06:43:45;97592.16;;;8.62;77.00
27864;BME280;15980;51.092;13.916;2023-03-26T06:53:46;97575.97;;;8.38;77.40
27864;BME280;15980;51.092;13.916;2023-03-26T07:03:46;97589.50;;;8.18;78.07
27864;BME280;15980;51.092;13.916;2023-03-26T07:13:46;97590.53;;;8.93;76.20
27864;BME280;15980;51.092;13.916;2023-03-26T07:23:47;97594.66;;;9.18;73.63
27864;BME280;15980;51.092;13.916;2023-03-26T07:34:05;97586.88;;;9.97;71.64
27864;BME280;15980;51.092;13.916;2023-03-26T07:54:15;97587.03;;;10.73;67.50
27864;BME280;15980;51.092;13.916;2023-03-26T08:15:11;97578.25;;;10.87;64.82
27864;BME280;15980;51.092;13.916;2023-03-26T08:35:14;97570.50;;;11.22;64.46
27864;BME280;15980;51.092;13.916;2023-03-26T09:06:41;97552.13;;;10.47;66.61
27864;BME280;15980;51.092;13.916;2023-03-26T09:16:28;97547.00;;;10.95;64.73
27864;BME280;15980;51.092;13.916;2023-03-26T09:47:51;97534.91;;;10.99;63.53
27864;BME280;15980;51.092;13.916;2023-03-26T10:59:17;97443.47;;;13.34;51.09
27864;BME280;15980;51.092;13.916;2023-03-26T11:09:44;97417.59;;;13.71;49.59
27864;BME280;15980;51.092;13.916;2023-03-26T11:19:53;97405.38;;;14.29;46.43
27864;BME280;15980;51.092;13.916;2023-03-26T11:30:09;97403.03;;;13.70;46.92
27864;BME280;15980;51.092;13.916;2023-03-26T11:40:20;97393.13;;;13.41;49.48
27864;BME280;15980;51.092;13.916;2023-03-26T11:50:29;97382.13;;;13.44;50.63
27864;BME280;15980;51.092;13.916;2023-03-26T12:00:30;97378.13;;;13.20;50.42
27864;BME280;15980;51.092;13.916;2023-03-26T12:10:36;97375.47;;;13.92;49.24
27864;BME280;15980;51.092;13.916;2023-03-26T12:20:37;97371.13;;;13.87;48.43
27864;BME280;15980;51.092;13.916;2023-03-26T12:30:39;97364.41;;;14.34;49.78
27864;BME280;15980;51.092;13.916;2023-03-26T12:40:41;97360.88;;;13.77;48.80
27864;BME280;15980;51.092;13.916;2023-03-26T13:21:33;97337.25;;;13.47;48.59
27864;BME280;15980;51.092;13.916;2023-03-26T13:31:53;97317.94;;;13.40;48.83
27864;BME280;15980;51.092;13.916;2023-03-26T13:42:18;97299.44;;;13.23;49.42
27864;BME280;15980;51.092;13.916;2023-03-26T13:52:39;97288.03;;;13.78;50.21
27864;BME280;15980;51.092;13.916;2023-03-26T14:02:46;97285.97;;;14.35;50.97
27864;BME280;15980;51.092;13.916;2023-03-26T14:13:05;97282.38;;;14.42;50.24
27864;BME280;15980;51.092;13.916;2023-03-26T14:53:48;97292.13;;;11.30;66.95
27864;BME280;15980;51.092;13.916;2023-03-26T15:14:36;97280.53;;;10.40;71.20
27864;BME280;15980;51.092;13.916;2023-03-26T15:45:41;97269.22;;;9.85;75.79
27864;BME280;15980;51.092;13.916;2023-03-26T15:56:04;97280.69;;;9.64;76.47
27864;BME280;15980;51.092;13.916;2023-03-26T16:17:04;97265.25;;;9.30;78.69
27864;BME280;15980;51.092;13.916;2023-03-26T17:48:31;97294.09;;;8.04;89.07
27864;BME280;15980;51.092;13.916;2023-03-26T17:58:39;97300.13;;;7.94;89.43
27864;BME280;15980;51.092;13.916;2023-03-26T18:18:51;97301.56;;;7.88;90.04
27864;BME280;15980;51.092;13.916;2023-03-26T18:29:28;97313.34;;;7.92;90.91
27864;BME280;15980;51.092;13.916;2023-03-26T18:39:27;97316.09;;;7.76;91.15
27864;BME280;15980;51.092;13.916;2023-03-26T18:49:28;97309.69;;;7.69;91.41
27864;BME280;15980;51.092;13.916;2023-03-26T18:59:30;97316.84;;;7.57;91.48
27864;BME280;15980;51.092;13.916;2023-03-26T19:09:31;97304.53;;;7.48;91.59
27864;BME280;15980;51.092;13.916;2023-03-26T19:19:35;97302.75;;;7.55;91.79
27864;BME280;15980;51.092;13.916;2023-03-26T19:29:36;97289.59;;;7.42;91.80
27864;BME280;15980;51.092;13.916;2023-03-26T19:39:42;97281.91;;;7.47;92.06
27864;BME280;15980;51.092;13.916;2023-03-26T19:49:49;97269.34;;;7.43;91.44
27864;BME280;15980;51.092;13.916;2023-03-26T19:59:50;97247.41;;;7.39;92.54
27864;BME280;15980;51.092;13.916;2023-03-26T20:09:52;97240.13;;;7.12;93.14
27864;BME280;15980;51.092;13.916;2023-03-26T20:19:52;97227.03;;;7.02;93.36
27864;BME280;15980;51.092;13.916;2023-03-26T20:29:52;97214.53;;;6.85;94.44
27864;BME280;15980;51.092;13.916;2023-03-26T20:39:52;97213.56;;;6.93;95.29
27864;BME280;15980;51.092;13.916;2023-03-26T20:49:53;97218.06;;;7.01;95.00
27864;BME280;15980;51.092;13.916;2023-03-26T20:59:53;97199.22;;;6.80;95.41
27864;BME280;15980;51.092;13.916;2023-03-26T21:09:53;97196.41;;;6.92;94.96
27864;BME280;15980;51.092;13.916;2023-03-26T21:19:54;97199.94;;;6.77;94.35
27864;BME280;15980;51.092;13.916;2023-03-26T21:29:55;97196.59;;;6.68;95.38
27864;BME280;15980;51.092;13.916;2023-03-26T21:39:56;97203.53;;;6.66;95.31
27864;BME280;15980;51.092;13.916;2023-03-26T21:49:57;97224.19;;;6.82;95.34
27864;BME280;15980;51.092;13.916;2023-03-26T22:00:09;97240.94;;;6.97;94.54
27864;BME280;15980;51.092;13.916;2023-03-26T22:10:10;97254.41;;;7.05;94.44
27864;BME280;15980;51.092;13.916;2023-03-26T22:20:13;97249.47;;;7.11;94.69
27864;BME280;15980;51.092;13.916;2023-03-26T22:30:14;97242.88;;;7.12;94.64
27864;BME280;15980;51.092;13.916;2023-03-26T22:40:14;97246.13;;;7.02;94.06
27864;BME280;15980;51.092;13.916;2023-03-26T22:50:15;97242.97;;;7.00;93.77
27864;BME280;15980;51.092;13.916;2023-03-26T23:00:15;97243.09;;;6.91;93.40
27864;BME280;15980;51.092;13.916;2023-03-26T23:10:16;97250.94;;;6.61;95.27
27864;BME280;15980;51.092;13.916;2023-03-26T23:20:16;97252.88;;;6.76;96.36
27864;BME280;15980;51.092;13.916;2023-03-26T23:30:17;97253.75;;;6.80;96.35
27864;BME280;15980;51.092;13.916;2023-03-26T23:40:17;97263.88;;;6.80;96.62
27864;BME280;15980;51.092;13.916;2023-03-26T23:50:17;97268.25;;;6.69;95.93
